Time;durP1;ratioP1;P1;durP2;ratioP2;P2;SDS_P1;SDS_P2;PMS_P1;PMS_P2;Temp;Humidity;BMP_temperature;BMP_pressure;BME280_temperature;BME280_humidity;BME280_pressure;Samples;Min_cycle;Max_cycle;Signal;HPM_P1;HPM_P2
2021/09/12 00:00:04;;;;;;;11.23;4.25;;;;;;;;;;5004215;28;20214;-71
2021/09/12 00:02:29;;;;;;;11.82;4.22;;;;;;;;;;4999284;28;20178;-70
2021/09/12 00:04:54;;;;;;;8.15;4.57;;;;;;;;;;4990610;28;20202;-69
2021/09/12 00:07:19;;;;;;;11.00;4.38;;;;;;;;;;5006907;28;20175;-70
2021/09/12 00:09:45;;;;;;;10.07;4.60;;;;;;;;;;5008885;28;20601;-70
2021/09/12 00:12:10;;;;;;;13.07;5.13;;;;;;;;;;5008328;28;20435;-69
2021/09/12 00:14:35;;;;;;;10.93;4.38;;;;;;;;;;5012521;28;21052;-69
2021/09/12 00:17:00;;;;;;;10.13;3.63;;;;;;;;;;5007227;28;20241;-69
2021/09/12 00:19:26;;;;;;;10.00;4.40;;;;;;;;;;5012311;28;20672;-70
2021/09/12 00:21:51;;;;;;;10.00;3.95;;;;;;;;;;5004781;28;20547;-69
2021/09/12 00:24:18;;;;;;;10.20;3.90;;;;;;;;;;5006897;28;20226;-69
2021/09/12 00:26:43;;;;;;;7.60;3.78;;;;;;;;;;5012452;28;20261;-69
2021/09/12 00:29:08;;;;;;;9.60;4.50;;;;;;;;;;5014830;28;20198;-69
2021/09/12 00:31:33;;;;;;;9.40;4.25;;;;;;;;;;5009513;28;20215;-69
2021/09/12 00:33:58;;;;;;;10.63;3.97;;;;;;;;;;5009132;28;20190;-69
2021/09/12 00:36:23;;;;;;;8.82;3.83;;;;;;;;;;4992983;28;20455;-69
2021/09/12 00:38:49;;;;;;;9.77;4.27;;;;;;;;;;5006143;28;20209;-70
2021/09/12 00:41:14;;;;;;;10.52;4.40;;;;;;;;;;5002344;28;20431;-70
2021/09/12 00:43:39;;;;;;;10.10;4.30;;;;;;;;;;5006458;28;20181;-69
2021/09/12 00:46:07;;;;;;;10.53;4.67;;;;;;;;;;5009807;28;20876;-70
2021/09/12 00:48:34;;;;;;;9.57;4.47;;;;;;;;;;5011069;28;20436;-69
2021/09/12 00:50:59;;;;;;;11.20;4.63;;;;;;;;;;5010792;28;20191;-69
2021/09/12 00:53:25;;;;;;;5.18;3.90;;;;;;;;;;5012499;28;20185;-70
2021/09/12 00:55:52;;;;;;;6.20;4.57;;;;;;;;;;5014480;28;20256;-69
2021/09/12 00:58:18;;;;;;;12.20;4.30;;;;;;;;;;5014923;28;20207;-69
2021/09/12 01:00:43;;;;;;;13.20;4.82;;;;;;;;;;5015788;28;20182;-70
2021/09/12 01:03:09;;;;;;;13.05;5.00;;;;;;;;;;5014335;28;20389;-70
2021/09/12 01:05:34;;;;;;;8.13;4.88;;;;;;;;;;5018455;28;20257;-70
2021/09/12 01:08:00;;;;;;;7.50;4.80;;;;;;;;;;5022221;28;20228;-70
2021/09/12 01:10:25;;;;;;;10.25;5.20;;;;;;;;;;5018520;28;20197;-70
2021/09/12 01:12:50;;;;;;;10.38;5.75;;;;;;;;;;5021036;28;20183;-70
2021/09/12 01:15:15;;;;;;;12.65;5.80;;;;;;;;;;5024889;28;20252;-70
2021/09/12 01:17:40;;;;;;;9.25;5.35;;;;;;;;;;5005242;28;20178;-70
2021/09/12 01:20:06;;;;;;;9.57;5.53;;;;;;;;;;5010063;28;20290;-70
2021/09/12 01:22:31;;;;;;;13.25;5.55;;;;;;;;;;5012682;28;20404;-70
2021/09/12 01:24:56;;;;;;;8.95;4.72;;;;;;;;;;5017275;28;20248;-69
2021/09/12 01:27:21;;;;;;;9.85;5.25;;;;;;;;;;5010178;28;20194;-69
2021/09/12 01:29:47;;;;;;;9.77;5.90;;;;;;;;;;5015506;28;20276;-69
2021/09/12 01:32:12;;;;;;;11.00;5.95;;;;;;;;;;5015846;28;20416;-69
2021/09/12 01:34:37;;;;;;;7.75;5.32;;;;;;;;;;5012618;28;20186;-69
2021/09/12 01:37:02;;;;;;;11.10;5.97;;;;;;;;;;5014585;28;20233;-70
2021/09/12 01:39:28;;;;;;;10.77;6.47;;;;;;;;;;5012905;28;20206;-69
2021/09/12 01:41:53;;;;;;;10.52;6.07;;;;;;;;;;5013692;28;20194;-69
2021/09/12 01:44:24;;;;;;;10.10;6.20;;;;;;;;;;5013790;28;20229;-69
2021/09/12 01:46:49;;;;;;;9.15;6.10;;;;;;;;;;5016277;28;20239;-69
2021/09/12 01:49:15;;;;;;;13.73;6.35;;;;;;;;;;5011712;28;20226;-70
2021/09/12 01:51:40;;;;;;;9.02;5.70;;;;;;;;;;5013200;28;20182;-69
2021/09/12 01:54:06;;;;;;;10.00;7.05;;;;;;;;;;5015995;28;20652;-69
2021/09/12 01:56:31;;;;;;;11.35;6.07;;;;;;;;;;5013449;28;20223;-70
2021/09/12 01:58:56;;;;;;;16.70;7.53;;;;;;;;;;5012997;28;20206;-70
2021/09/12 02:01:21;;;;;;;13.88;6.20;;;;;;;;;;5011800;28;20641;-70
2021/09/12 02:03:47;;;;;;;12.35;6.60;;;;;;;;;;5012145;28;20186;-69
2021/09/12 02:06:12;;;;;;;9.35;6.70;;;;;;;;;;5007054;28;20183;-70
2021/09/12 02:08:37;;;;;;;11.07;7.45;;;;;;;;;;5019697;22;20222;-70
2021/09/12 02:11:03;;;;;;;11.77;7.35;;;;;;;;;;5003623;28;20282;-70
2021/09/12 02:13:28;;;;;;;10.68;7.50;;;;;;;;;;5011189;28;20182;-71
2021/09/12 02:15:53;;;;;;;10.43;7.43;;;;;;;;;;5011291;28;20182;-70
2021/09/12 02:18:18;;;;;;;9.27;7.80;;;;;;;;;;5011141;28;20441;-70
2021/09/12 02:20:43;;;;;;;13.55;7.18;;;;;;;;;;5010131;28;20198;-70
2021/09/12 02:23:09;;;;;;;14.18;8.57;;;;;;;;;;5012300;28;20179;-71
2021/09/12 02:25:34;;;;;;;13.75;7.85;;;;;;;;;;4993091;28;20210;-71
2021/09/12 02:28:00;;;;;;;18.00;8.30;;;;;;;;;;5013311;28;20205;-71
2021/09/12 02:30:25;;;;;;;12.02;8.73;;;;;;;;;;5011052;28;20195;-70
2021/09/12 02:32:50;;;;;;;14.85;8.32;;;;;;;;;;5012006;28;20183;-70
2021/09/12 02:35:15;;;;;;;16.27;8.73;;;;;;;;;;5009258;28;20193;-69
2021/09/12 02:37:40;;;;;;;14.13;8.50;;;;;;;;;;4994396;28;20428;-71
2021/09/12 02:40:06;;;;;;;15.95;9.55;;;;;;;;;;5011615;28;20535;-70
2021/09/12 02:42:31;;;;;;;18.15;9.45;;;;;;;;;;5011685;28;20194;-69
2021/09/12 02:44:56;;;;;;;17.27;9.80;;;;;;;;;;5011934;28;20198;-69
2021/09/12 02:47:22;;;;;;;18.13;10.40;;;;;;;;;;5011831;28;20918;-69
2021/09/12 02:49:47;;;;;;;20.85;10.50;;;;;;;;;;5010451;28;20583;-69
2021/09/12 02:52:12;;;;;;;15.23;10.02;;;;;;;;;;5011441;28;20664;-69
2021/09/12 02:54:37;;;;;;;16.92;11.75;;;;;;;;;;5010648;28;20202;-69
2021/09/12 02:57:03;;;;;;;18.88;10.63;;;;;;;;;;5010352;28;20187;-69
2021/09/12 02:59:28;;;;;;;18.35;10.77;;;;;;;;;;5011358;28;20191;-69
2021/09/12 03:01:53;;;;;;;17.83;10.65;;;;;;;;;;5007542;28;20197;-70
2021/09/12 03:04:18;;;;;;;17.27;10.05;;;;;;;;;;5004873;28;20202;-68
2021/09/12 03:06:44;;;;;;;21.53;12.23;;;;;;;;;;5000217;28;20179;-71
2021/09/12 03:09:09;;;;;;;17.55;11.52;;;;;;;;;;5010530;28;20456;-71
2021/09/12 03:11:34;;;;;;;17.20;10.65;;;;;;;;;;5004201;28;20250;-71
2021/09/12 03:13:59;;;;;;;16.50;9.77;;;;;;;;;;5012019;28;20207;-71
2021/09/12 03:16:24;;;;;;;16.48;10.10;;;;;;;;;;4990493;28;20183;-71
2021/09/12 03:18:50;;;;;;;17.58;9.85;;;;;;;;;;5011716;28;20203;-69
2021/09/12 03:21:16;;;;;;;22.90;10.32;;;;;;;;;;5007539;28;20179;-69
2021/09/12 03:23:41;;;;;;;18.65;10.60;;;;;;;;;;5009106;28;20258;-69
2021/09/12 03:26:06;;;;;;;19.63;10.27;;;;;;;;;;5010276;28;20205;-69
2021/09/12 03:28:31;;;;;;;17.58;9.77;;;;;;;;;;5011883;28;20197;-69
2021/09/12 03:30:57;;;;;;;17.55;11.10;;;;;;;;;;5009733;28;20194;-69
2021/09/12 03:33:22;;;;;;;17.65;9.32;;;;;;;;;;5010840;28;20640;-69
2021/09/12 03:35:47;;;;;;;14.90;8.98;;;;;;;;;;5006892;28;20346;-69
2021/09/12 03:38:12;;;;;;;18.20;10.82;;;;;;;;;;5011295;28;20183;-69
2021/09/12 03:40:38;;;;;;;17.65;9.85;;;;;;;;;;5010230;28;20175;-69
2021/09/12 03:43:03;;;;;;;27.95;11.30;;;;;;;;;;4994376;28;20194;-69
2021/09/12 03:45:28;;;;;;;17.83;10.10;;;;;;;;;;5009845;28;20222;-69
2021/09/12 03:47:53;;;;;;;20.53;10.13;;;;;;;;;;5010892;28;20637;-69
2021/09/12 03:50:18;;;;;;;16.00;10.37;;;;;;;;;;5008235;28;20539;-69
2021/09/12 03:52:43;;;;;;;19.30;10.95;;;;;;;;;;5009737;28;20433;-69
2021/09/12 03:55:09;;;;;;;21.13;11.05;;;;;;;;;;5008673;28;20663;-69
2021/09/12 03:57:35;;;;;;;17.48;11.20;;;;;;;;;;5008592;28;20175;-69
2021/09/12 04:00:00;;;;;;;20.92;10.95;;;;;;;;;;5007498;28;20689;-69
2021/09/12 04:02:25;;;;;;;15.57;10.32;;;;;;;;;;5010450;28;20190;-69
2021/09/12 04:04:50;;;;;;;19.55;11.95;;;;;;;;;;5003702;28;20206;-69
2021/09/12 04:07:15;;;;;;;18.63;12.15;;;;;;;;;;5007710;28;20644;-69
2021/09/12 04:09:40;;;;;;;18.15;11.55;;;;;;;;;;4991653;28;20261;-69
2021/09/12 04:12:06;;;;;;;24.10;13.00;;;;;;;;;;4996275;28;20183;-69
2021/09/12 04:14:31;;;;;;;22.45;12.65;;;;;;;;;;5004396;28;20214;-69
2021/09/12 04:16:56;;;;;;;21.13;14.10;;;;;;;;;;5009140;28;20183;-69
2021/09/12 04:19:21;;;;;;;19.58;12.57;;;;;;;;;;5006411;28;20195;-69
2021/09/12 04:21:46;;;;;;;17.60;12.57;;;;;;;;;;5008412;28;20219;-69
2021/09/12 04:24:12;;;;;;;23.77;15.18;;;;;;;;;;5007702;28;20225;-69
2021/09/12 04:26:37;;;;;;;20.35;12.30;;;;;;;;;;5008342;28;20250;-69
2021/09/12 04:29:02;;;;;;;20.13;13.63;;;;;;;;;;5007955;28;20664;-72
2021/09/12 04:31:28;;;;;;;23.45;14.40;;;;;;;;;;5008231;28;20175;-70
2021/09/12 04:33:53;;;;;;;23.25;13.60;;;;;;;;;;5008979;28;20175;-69
2021/09/12 04:36:18;;;;;;;21.70;14.38;;;;;;;;;;5010006;28;20175;-69
2021/09/12 04:38:43;;;;;;;19.83;12.15;;;;;;;;;;4990842;28;20191;-69
2021/09/12 04:41:09;;;;;;;19.93;12.70;;;;;;;;;;5011089;28;20262;-69
2021/09/12 04:43:34;;;;;;;18.83;12.37;;;;;;;;;;5008268;28;20428;-69
2021/09/12 04:45:59;;;;;;;24.83;14.00;;;;;;;;;;5010118;28;20507;-69
2021/09/12 04:48:24;;;;;;;23.33;12.63;;;;;;;;;;5007803;28;20428;-69
2021/09/12 04:50:49;;;;;;;20.05;12.93;;;;;;;;;;5011062;28;20419;-69
2021/09/12 04:53:14;;;;;;;21.20;13.98;;;;;;;;;;5010796;28;20641;-69
2021/09/12 04:55:40;;;;;;;25.15;13.85;;;;;;;;;;5008972;28;20249;-69
2021/09/12 04:58:05;;;;;;;20.30;13.20;;;;;;;;;;5008862;28;20187;-69
2021/09/12 05:00:30;;;;;;;21.00;12.65;;;;;;;;;;5003121;28;20211;-69
2021/09/12 05:02:55;;;;;;;20.77;12.55;;;;;;;;;;5007183;28;20230;-69
2021/09/12 05:05:21;;;;;;;16.08;11.55;;;;;;;;;;4983900;28;20302;-69
2021/09/12 05:07:46;;;;;;;21.88;13.23;;;;;;;;;;5003775;28;20191;-69
2021/09/12 05:10:11;;;;;;;18.40;12.07;;;;;;;;;;5005014;28;20278;-69
2021/09/12 05:12:36;;;;;;;25.20;14.30;;;;;;;;;;5008040;28;20237;-69
2021/09/12 05:15:01;;;;;;;20.58;13.52;;;;;;;;;;5007762;28;20594;-69
2021/09/12 05:17:27;;;;;;;18.52;13.32;;;;;;;;;;5008925;28;20187;-69
2021/09/12 05:19:52;;;;;;;22.40;13.68;;;;;;;;;;5006928;28;20226;-70
2021/09/12 05:22:17;;;;;;;20.58;13.30;;;;;;;;;;4993507;28;20622;-69
2021/09/12 05:24:42;;;;;;;21.67;12.63;;;;;;;;;;5007750;28;20198;-69
2021/09/12 05:27:07;;;;;;;20.85;13.60;;;;;;;;;;5007182;28;20218;-70
2021/09/12 05:29:33;;;;;;;21.65;12.73;;;;;;;;;;5009349;28;20199;-70
2021/09/12 05:31:58;;;;;;;20.50;13.38;;;;;;;;;;5009474;28;20180;-69
2021/09/12 05:34:23;;;;;;;19.27;12.82;;;;;;;;;;5010832;28;20592;-70
2021/09/12 05:36:48;;;;;;;17.70;12.38;;;;;;;;;;5006030;28;20199;-70
2021/09/12 05:39:13;;;;;;;18.55;13.57;;;;;;;;;;5010286;28;20209;-70
2021/09/12 05:41:39;;;;;;;20.83;13.90;;;;;;;;;;5012205;28;20186;-69
2021/09/12 05:44:04;;;;;;;22.73;12.80;;;;;;;;;;4995401;28;20569;-70
2021/09/12 05:46:29;;;;;;;20.08;13.35;;;;;;;;;;5010295;28;20179;-70
2021/09/12 05:48:54;;;;;;;24.58;13.68;;;;;;;;;;5012224;28;20684;-70
2021/09/12 05:51:20;;;;;;;19.40;12.35;;;;;;;;;;5010550;28;20552;-70
2021/09/12 05:53:45;;;;;;;18.27;12.60;;;;;;;;;;5008100;28;20187;-68
2021/09/12 05:56:10;;;;;;;17.50;12.82;;;;;;;;;;5012207;28;20222;-71
2021/09/12 05:58:35;;;;;;;18.20;11.77;;;;;;;;;;5007496;28;20210;-70
2021/09/12 06:01:00;;;;;;;18.95;12.02;;;;;;;;;;5010961;28;20206;-70
2021/09/12 06:03:26;;;;;;;19.65;13.30;;;;;;;;;;5009158;28;20581;-70
2021/09/12 06:05:51;;;;;;;18.03;12.37;;;;;;;;;;4999454;28;20221;-70
2021/09/12 06:08:16;;;;;;;21.92;12.55;;;;;;;;;;5009773;28;20448;-71
2021/09/12 06:10:41;;;;;;;16.77;11.35;;;;;;;;;;5002943;28;20198;-70
2021/09/12 06:13:06;;;;;;;18.90;13.32;;;;;;;;;;5011217;28;20175;-70
2021/09/12 06:15:32;;;;;;;18.20;12.35;;;;;;;;;;5009175;28;20178;-71
2021/09/12 06:17:57;;;;;;;18.63;12.27;;;;;;;;;;5013822;28;20182;-71
2021/09/12 06:20:22;;;;;;;20.90;13.57;;;;;;;;;;5011073;28;20195;-71
2021/09/12 06:22:48;;;;;;;18.52;11.52;;;;;;;;;;5014449;28;20214;-70
2021/09/12 06:25:14;;;;;;;21.60;12.70;;;;;;;;;;5012630;28;20260;-71
2021/09/12 06:27:39;;;;;;;27.70;13.48;;;;;;;;;;5009468;28;20218;-71
2021/09/12 06:30:05;;;;;;;17.70;12.18;;;;;;;;;;5007708;28;20657;-71
2021/09/12 06:32:31;;;;;;;19.30;12.95;;;;;;;;;;5012435;28;20178;-70
2021/09/12 06:34:56;;;;;;;23.40;14.30;;;;;;;;;;5012240;28;20263;-71
2021/09/12 06:37:21;;;;;;;17.83;13.10;;;;;;;;;;5011628;28;20555;-71
2021/09/12 06:39:46;;;;;;;22.58;14.07;;;;;;;;;;5009787;28;20206;-71
2021/09/12 06:42:11;;;;;;;19.92;12.70;;;;;;;;;;5010884;28;20633;-71
2021/09/12 06:44:36;;;;;;;17.40;11.77;;;;;;;;;;5011679;28;20238;-71
2021/09/12 06:47:02;;;;;;;20.65;13.63;;;;;;;;;;5012455;28;20427;-70
2021/09/12 06:49:27;;;;;;;25.48;13.60;;;;;;;;;;5011818;28;20195;-71
2021/09/12 06:51:52;;;;;;;20.05;12.80;;;;;;;;;;5009132;28;20186;-71
2021/09/12 06:54:17;;;;;;;19.38;12.25;;;;;;;;;;4995229;28;20252;-74
2021/09/12 06:56:43;;;;;;;23.45;12.93;;;;;;;;;;5007200;28;20660;-70
2021/09/12 06:59:08;;;;;;;20.27;12.27;;;;;;;;;;5009237;28;20207;-69
2021/09/12 07:01:33;;;;;;;19.73;11.88;;;;;;;;;;4999226;28;20429;-71
2021/09/12 07:03:59;;;;;;;17.60;12.20;;;;;;;;;;4999822;28;20246;-68
2021/09/12 07:06:24;;;;;;;20.15;12.10;;;;;;;;;;4994258;28;20428;-70
2021/09/12 07:08:50;;;;;;;19.15;11.27;;;;;;;;;;4998355;28;20563;-70
2021/09/12 07:11:15;;;;;;;19.00;11.73;;;;;;;;;;5003115;28;20174;-69
2021/09/12 07:13:41;;;;;;;19.88;11.85;;;;;;;;;;5012083;28;20212;-70
2021/09/12 07:16:06;;;;;;;15.25;11.45;;;;;;;;;;5003391;28;20190;-70
2021/09/12 07:18:32;;;;;;;14.57;10.75;;;;;;;;;;5000499;28;20230;-70
2021/09/12 07:20:57;;;;;;;20.63;11.63;;;;;;;;;;4984851;28;20192;-70
2021/09/12 07:23:22;;;;;;;18.17;11.57;;;;;;;;;;4997077;28;21718;-69
2021/09/12 07:25:47;;;;;;;16.63;11.07;;;;;;;;;;4998395;28;20598;-68
2021/09/12 07:28:13;;;;;;;15.73;10.98;;;;;;;;;;5000465;28;20479;-68
2021/09/12 07:30:38;;;;;;;18.67;12.20;;;;;;;;;;4996589;28;20189;-72
2021/09/12 07:33:03;;;;;;;19.90;11.90;;;;;;;;;;5000492;28;20503;-69
2021/09/12 07:35:28;;;;;;;16.97;11.23;;;;;;;;;;5004010;28;20432;-69
2021/09/12 07:37:53;;;;;;;17.10;11.43;;;;;;;;;;5011196;28;20462;-69
2021/09/12 07:40:19;;;;;;;15.02;10.80;;;;;;;;;;5008006;28;20269;-69
2021/09/12 07:42:46;;;;;;;16.27;11.40;;;;;;;;;;5000058;28;20632;-69
2021/09/12 07:45:12;;;;;;;16.00;10.63;;;;;;;;;;5001748;28;20203;-69
2021/09/12 07:47:37;;;;;;;16.58;11.57;;;;;;;;;;4998686;28;20508;-69
2021/09/12 07:50:02;;;;;;;15.77;10.90;;;;;;;;;;4998250;28;20562;-68
2021/09/12 07:52:27;;;;;;;17.73;11.48;;;;;;;;;;4999992;28;20203;-69
2021/09/12 07:54:53;;;;;;;19.70;11.38;;;;;;;;;;5000629;28;20559;-69
2021/09/12 07:57:18;;;;;;;16.03;10.70;;;;;;;;;;4998961;28;20213;-71
2021/09/12 07:59:43;;;;;;;18.50;11.50;;;;;;;;;;4983620;28;20448;-69
2021/09/12 08:02:08;;;;;;;16.87;10.90;;;;;;;;;;5000575;28;22019;-69
2021/09/12 08:04:33;;;;;;;16.63;11.03;;;;;;;;;;5003734;28;20458;-69
2021/09/12 08:06:58;;;;;;;19.30;11.47;;;;;;;;;;4993548;28;20922;-70
2021/09/12 08:09:24;;;;;;;18.20;12.65;;;;;;;;;;4997064;28;20522;-69
2021/09/12 08:11:49;;;;;;;19.93;12.20;;;;;;;;;;4998997;28;20179;-70
2021/09/12 08:14:14;;;;;;;21.10;11.82;;;;;;;;;;4999227;28;21206;-70
2021/09/12 08:16:39;;;;;;;17.40;11.93;;;;;;;;;;4998635;28;20186;-69
2021/09/12 08:19:04;;;;;;;25.15;13.60;;;;;;;;;;4978859;28;20525;-70
2021/09/12 08:21:30;;;;;;;23.57;12.70;;;;;;;;;;4993525;28;20179;-69
2021/09/12 08:23:55;;;;;;;25.73;12.75;;;;;;;;;;5010107;28;21006;-69
2021/09/12 08:26:21;;;;;;;18.65;12.45;;;;;;;;;;4999982;28;20174;-69
2021/09/12 08:28:46;;;;;;;17.40;11.77;;;;;;;;;;4997295;28;20207;-69
2021/09/12 08:31:11;;;;;;;22.40;13.73;;;;;;;;;;4998678;28;20186;-70
2021/09/12 08:33:37;;;;;;;23.63;13.50;;;;;;;;;;4998606;28;20188;-69
2021/09/12 08:36:02;;;;;;;23.13;13.60;;;;;;;;;;4996170;28;20452;-70
2021/09/12 08:38:27;;;;;;;25.27;13.38;;;;;;;;;;4998098;28;20475;-69
2021/09/12 08:40:55;;;;;;;20.50;13.77;;;;;;;;;;4998853;28;20193;-70
2021/09/12 08:43:21;;;;;;;28.38;16.20;;;;;;;;;;4998977;28;20209;-69
2021/09/12 08:45:46;;;;;;;27.13;16.38;;;;;;;;;;4999467;28;20747;-69
2021/09/12 08:48:11;;;;;;;31.67;16.50;;;;;;;;;;5007345;28;20549;-70
2021/09/12 08:50:36;;;;;;;26.70;15.07;;;;;;;;;;5007070;28;20421;-70
2021/09/12 08:53:01;;;;;;;26.63;15.88;;;;;;;;;;5008814;28;20654;-69
2021/09/12 08:55:26;;;;;;;30.80;17.17;;;;;;;;;;4981113;28;20709;-69
2021/09/12 08:57:52;;;;;;;30.97;18.37;;;;;;;;;;4984922;28;20188;-70
2021/09/12 09:00:21;;;;;;;30.10;16.48;;;;;;;;;;4990518;28;20456;-69
2021/09/12 09:02:47;;;;;;;27.23;17.20;;;;;;;;;;4988929;28;20282;-69
2021/09/12 09:05:12;;;;;;;30.02;16.83;;;;;;;;;;4992355;28;20207;-70
2021/09/12 09:07:37;;;;;;;30.23;18.73;;;;;;;;;;4989114;28;20179;-69
2021/09/12 09:10:03;;;;;;;31.25;18.40;;;;;;;;;;4993302;28;20210;-70
2021/09/12 09:12:28;;;;;;;29.10;17.77;;;;;;;;;;4990677;28;20179;-70
2021/09/12 09:15:08;;;;;;;25.65;17.88;;;;;;;;;;4996208;28;20576;-70
2021/09/12 09:17:43;;;;;;;29.75;18.58;;;;;;;;;;4994258;28;20811;-70
2021/09/12 09:20:10;;;;;;;35.45;20.55;;;;;;;;;;4995291;28;20221;-69
2021/09/12 09:22:37;;;;;;;31.85;19.27;;;;;;;;;;4994435;28;20183;-70
2021/09/12 09:25:17;;;;;;;28.40;19.10;;;;;;;;;;4998773;28;20203;-70
2021/09/12 09:28:01;;;;;;;28.58;17.98;;;;;;;;;;5012184;28;20175;-68
2021/09/12 09:30:32;;;;;;;26.98;18.23;;;;;;;;;;5003098;28;20198;-68
2021/09/12 09:33:13;;;;;;;31.08;17.85;;;;;;;;;;4999275;28;20270;-69
2021/09/12 09:35:48;;;;;;;32.47;19.35;;;;;;;;;;4993643;28;20791;-69
2021/09/12 09:38:13;;;;;;;32.05;19.52;;;;;;;;;;5014304;28;20194;-69
2021/09/12 09:40:38;;;;;;;27.90;19.23;;;;;;;;;;5003179;28;20279;-69
2021/09/12 09:43:14;;;;;;;28.60;18.83;;;;;;;;;;4994078;28;20494;-69
2021/09/12 09:45:39;;;;;;;28.00;18.80;;;;;;;;;;4999096;28;20459;-70
2021/09/12 09:48:12;;;;;;;29.52;18.02;;;;;;;;;;4993916;28;20194;-69
2021/09/12 09:50:37;;;;;;;29.70;19.67;;;;;;;;;;5006225;28;20257;-69
2021/09/12 09:53:02;;;;;;;32.50;18.88;;;;;;;;;;4994885;28;20455;-69
2021/09/12 09:55:27;;;;;;;26.40;18.35;;;;;;;;;;4997994;28;20188;-69
2021/09/12 09:57:53;;;;;;;27.88;18.42;;;;;;;;;;4999997;28;20190;-69
2021/09/12 10:00:20;;;;;;;25.98;18.70;;;;;;;;;;4999670;28;20203;-69
2021/09/12 10:02:46;;;;;;;29.85;20.13;;;;;;;;;;4996921;28;20194;-69
2021/09/12 10:05:13;;;;;;;30.48;22.77;;;;;;;;;;5000143;28;20593;-68
2021/09/12 10:07:39;;;;;;;28.95;22.05;;;;;;;;;;4981886;28;20216;-69
2021/09/12 10:10:09;;;;;;;24.40;20.63;;;;;;;;;;4996625;28;20705;-69
2021/09/12 10:12:35;;;;;;;28.33;21.85;;;;;;;;;;4997618;28;20182;-69
2021/09/12 10:15:03;;;;;;;25.77;20.48;;;;;;;;;;5000872;28;20179;-70
2021/09/12 10:17:29;;;;;;;30.95;21.08;;;;;;;;;;4997304;28;20325;-69
2021/09/12 10:20:14;;;;;;;25.48;20.17;;;;;;;;;;5002973;28;20218;-70
2021/09/12 10:22:50;;;;;;;26.70;21.40;;;;;;;;;;4997466;28;20186;-69
2021/09/12 10:25:16;;;;;;;29.00;22.38;;;;;;;;;;4983898;28;20835;-69
2021/09/12 10:27:42;;;;;;;27.80;21.42;;;;;;;;;;4999830;28;20215;-69
2021/09/12 10:30:17;;;;;;;25.73;20.10;;;;;;;;;;4996475;28;20199;-70
2021/09/12 10:32:42;;;;;;;29.35;21.98;;;;;;;;;;4995712;28;20653;-69
2021/09/12 10:35:24;;;;;;;24.67;21.07;;;;;;;;;;4981524;28;20183;-69
2021/09/12 10:37:55;;;;;;;18.73;16.63;;;;;;;;;;4998880;28;20435;-69
2021/09/12 10:40:21;;;;;;;25.27;20.77;;;;;;;;;;4997523;28;20218;-69
2021/09/12 10:42:46;;;;;;;25.02;21.35;;;;;;;;;;4990969;28;20187;-68
2021/09/12 10:45:21;;;;;;;23.85;20.85;;;;;;;;;;4996950;28;20202;-68
2021/09/12 10:47:47;;;;;;;28.30;21.70;;;;;;;;;;4998745;28;20784;-69
2021/09/12 10:50:31;;;;;;;31.00;21.73;;;;;;;;;;4997189;28;20258;-69
2021/09/12 10:52:57;;;;;;;28.08;20.60;;;;;;;;;;4995930;28;20267;-69
2021/09/12 10:55:22;;;;;;;25.85;21.40;;;;;;;;;;5001398;28;20182;-69
2021/09/12 10:57:47;;;;;;;28.35;21.17;;;;;;;;;;4993350;28;20275;-69
2021/09/12 11:00:16;;;;;;;28.33;21.30;;;;;;;;;;4998223;28;20495;-68
2021/09/12 11:02:47;;;;;;;26.33;20.20;;;;;;;;;;4981606;28;20187;-69
2021/09/12 11:05:25;;;;;;;25.70;20.20;;;;;;;;;;4998795;28;20203;-70
2021/09/12 11:07:54;;;;;;;23.55;20.73;;;;;;;;;;4998191;28;21448;-69
2021/09/12 11:10:38;;;;;;;24.40;20.25;;;;;;;;;;4998077;28;20302;-69
2021/09/12 11:13:03;;;;;;;25.05;19.88;;;;;;;;;;4980258;28;20179;-67
2021/09/12 11:15:29;;;;;;;24.52;21.67;;;;;;;;;;4998203;28;20183;-67
2021/09/12 11:17:54;;;;;;;22.90;20.48;;;;;;;;;;4997785;28;20187;-68
2021/09/12 11:20:19;;;;;;;23.38;20.60;;;;;;;;;;4997080;28;20218;-68
2021/09/12 11:22:51;;;;;;;25.15;20.58;;;;;;;;;;4997758;28;20265;-68
2021/09/12 11:25:19;;;;;;;26.65;21.13;;;;;;;;;;4995243;28;20214;-68
2021/09/12 11:27:44;;;;;;;24.63;19.30;;;;;;;;;;4998476;28;20188;-68
2021/09/12 11:30:10;;;;;;;21.40;19.13;;;;;;;;;;4994865;28;20750;-68
2021/09/12 11:32:35;;;;;;;21.55;19.25;;;;;;;;;;4994862;28;20439;-68
2021/09/12 11:35:00;;;;;;;28.13;21.00;;;;;;;;;;4995120;28;20182;-68
2021/09/12 11:37:26;;;;;;;24.40;20.60;;;;;;;;;;4990393;28;21209;-68
2021/09/12 11:39:57;;;;;;;25.42;21.90;;;;;;;;;;4993437;28;20495;-67
2021/09/12 11:42:23;;;;;;;29.67;22.15;;;;;;;;;;4996742;28;20661;-68
2021/09/12 11:44:51;;;;;;;22.95;20.55;;;;;;;;;;4999399;28;20293;-68
2021/09/12 11:47:20;;;;;;;23.35;20.83;;;;;;;;;;4990126;28;20179;-67
2021/09/12 11:49:58;;;;;;;22.52;20.02;;;;;;;;;;4975357;28;20190;-68
2021/09/12 11:52:49;;;;;;;24.55;20.95;;;;;;;;;;4997614;28;20214;-67
2021/09/12 11:55:18;;;;;;;32.67;23.20;;;;;;;;;;4990782;28;20195;-68
2021/09/12 11:57:43;;;;;;;21.88;19.55;;;;;;;;;;4996369;28;20184;-68
2021/09/12 12:00:09;;;;;;;24.10;21.05;;;;;;;;;;4996606;28;20577;-68
2021/09/12 12:02:34;;;;;;;22.13;19.50;;;;;;;;;;4998168;28;20174;-68
2021/09/12 12:05:00;;;;;;;26.25;20.55;;;;;;;;;;4995911;28;20712;-68
2021/09/12 12:07:35;;;;;;;26.73;23.30;;;;;;;;;;4994099;28;20175;-68
2021/09/12 12:10:00;;;;;;;27.45;20.75;;;;;;;;;;4999072;28;20206;-68
2021/09/12 12:12:34;;;;;;;25.77;22.40;;;;;;;;;;4999115;28;22664;-69
2021/09/12 12:15:06;;;;;;;25.48;22.35;;;;;;;;;;4997390;28;20194;-69
2021/09/12 12:17:31;;;;;;;24.40;20.92;;;;;;;;;;4997506;28;20190;-69
2021/09/12 12:19:57;;;;;;;22.65;20.20;;;;;;;;;;5001802;28;20206;-69
2021/09/12 12:22:23;;;;;;;19.95;17.13;;;;;;;;;;4992801;28;21036;-69
2021/09/12 12:24:52;;;;;;;19.55;16.67;;;;;;;;;;4994904;28;20210;-69
2021/09/12 12:27:17;;;;;;;18.23;14.52;;;;;;;;;;4997922;28;20179;-68
2021/09/12 12:29:44;;;;;;;13.95;11.30;;;;;;;;;;4994331;28;20223;-68
2021/09/12 12:32:10;;;;;;;9.32;6.97;;;;;;;;;;4995309;28;20168;-69
2021/09/12 12:34:51;;;;;;;7.53;6.72;;;;;;;;;;4992735;28;20790;-69
2021/09/12 12:37:18;;;;;;;7.25;6.13;;;;;;;;;;4998432;28;20193;-69
2021/09/12 12:39:43;;;;;;;8.73;6.60;;;;;;;;;;4999044;28;20278;-68
2021/09/12 12:42:09;;;;;;;7.78;6.97;;;;;;;;;;4997051;28;20261;-68
2021/09/12 12:44:41;;;;;;;5.85;4.78;;;;;;;;;;4997936;28;20203;-67
2021/09/12 12:47:06;;;;;;;2.65;2.28;;;;;;;;;;4994476;28;20186;-69
2021/09/12 12:49:32;;;;;;;2.63;1.90;;;;;;;;;;5001161;28;20202;-68
2021/09/12 12:52:03;;;;;;;2.25;1.60;;;;;;;;;;5001846;28;22160;-68
2021/09/12 12:54:31;;;;;;;2.85;1.48;;;;;;;;;;4998491;28;20394;-68
2021/09/12 12:56:56;;;;;;;1.63;1.45;;;;;;;;;;5000381;28;20179;-67
2021/09/12 12:59:22;;;;;;;2.65;2.08;;;;;;;;;;5000255;28;20886;-68
2021/09/12 13:01:47;;;;;;;2.10;1.47;;;;;;;;;;5002928;28;22045;-68
2021/09/12 13:04:12;;;;;;;3.07;1.60;;;;;;;;;;5001964;28;20183;-68
2021/09/12 13:06:37;;;;;;;1.90;1.30;;;;;;;;;;5003558;28;20658;-68
2021/09/12 13:09:02;;;;;;;2.53;1.52;;;;;;;;;;5000282;28;20465;-68
2021/09/12 13:11:28;;;;;;;1.90;1.33;;;;;;;;;;4981062;28;20188;-68
2021/09/12 13:13:53;;;;;;;3.35;1.58;;;;;;;;;;5000603;28;20311;-67
2021/09/12 13:16:19;;;;;;;1.67;1.30;;;;;;;;;;4999478;28;20176;-68
2021/09/12 13:18:44;;;;;;;2.80;1.55;;;;;;;;;;4998920;28;21098;-68
2021/09/12 13:21:09;;;;;;;1.95;1.40;;;;;;;;;;4999138;28;20195;-68
2021/09/12 13:23:34;;;;;;;3.25;1.50;;;;;;;;;;4999974;28;20565;-67
2021/09/12 13:25:59;;;;;;;3.57;1.47;;;;;;;;;;5001515;28;20916;-69
2021/09/12 13:28:25;;;;;;;1.93;1.17;;;;;;;;;;4999266;28;20454;-68
2021/09/12 13:30:51;;;;;;;1.58;0.70;;;;;;;;;;5000133;28;20538;-68
2021/09/12 13:33:16;;;;;;;1.45;0.95;;;;;;;;;;4997471;28;20179;-68
2021/09/12 13:35:42;;;;;;;3.13;1.55;;;;;;;;;;4998979;28;20179;-68
2021/09/12 13:38:07;;;;;;;1.27;1.00;;;;;;;;;;4999630;28;20205;-69
2021/09/12 13:40:33;;;;;;;1.00;0.90;;;;;;;;;;4998353;28;20742;-68
2021/09/12 13:42:59;;;;;;;2.60;1.10;;;;;;;;;;4997526;28;20179;-68
2021/09/12 13:45:25;;;;;;;2.15;1.05;;;;;;;;;;4998173;28;20577;-68
2021/09/12 13:47:50;;;;;;;1.98;0.95;;;;;;;;;;4979675;28;20189;-68
2021/09/12 13:50:15;;;;;;;4.25;0.90;;;;;;;;;;4999956;28;20833;-69
2021/09/12 13:52:41;;;;;;;1.35;0.80;;;;;;;;;;4993876;28;20717;-69
2021/09/12 13:55:06;;;;;;;2.90;1.00;;;;;;;;;;4992910;28;20175;-69
2021/09/12 13:57:31;;;;;;;3.50;1.20;;;;;;;;;;4998869;28;20197;-68
2021/09/12 13:59:57;;;;;;;1.90;1.17;;;;;;;;;;4997220;28;20195;-69
2021/09/12 14:02:22;;;;;;;2.17;1.02;;;;;;;;;;5000768;28;20179;-68
2021/09/12 14:04:47;;;;;;;2.67;1.03;;;;;;;;;;4996178;28;20206;-68
2021/09/12 14:07:12;;;;;;;1.98;0.90;;;;;;;;;;4999274;28;20193;-68
2021/09/12 14:09:38;;;;;;;2.40;1.05;;;;;;;;;;4997861;28;20218;-69
2021/09/12 14:12:04;;;;;;;2.50;1.10;;;;;;;;;;4996494;28;20197;-68
2021/09/12 14:14:29;;;;;;;1.63;1.23;;;;;;;;;;4998614;28;20200;-69
2021/09/12 14:16:54;;;;;;;1.83;1.13;;;;;;;;;;4998248;28;20191;-69